createdAt,value
2022-09-07T00:01:04.277Z,0.20
2022-09-07T00:03:32.612Z,0.20
2022-09-07T00:06:00.937Z,0.10
2022-09-07T00:08:29.092Z,0.20
2022-09-07T00:10:58.952Z,0.20
2022-09-07T00:13:31.064Z,0.20
2022-09-07T00:15:59.179Z,0.20
2022-09-07T00:18:27.288Z,0.20
2022-09-07T00:21:02.161Z,0.13
2022-09-07T00:23:31.327Z,0.20
2022-09-07T00:26:02.980Z,0.20
2022-09-07T00:28:32.565Z,0.20
2022-09-07T00:31:00.730Z,0.20
2022-09-07T00:33:29.514Z,0.20
2022-09-07T00:35:59.162Z,0.20
2022-09-07T00:38:27.332Z,0.20
2022-09-07T00:40:55.417Z,0.20
2022-09-07T00:43:34.223Z,0.20
2022-09-07T00:46:02.844Z,0.20
2022-09-07T00:48:35.371Z,0.20
2022-09-07T00:51:06.908Z,0.20
2022-09-07T00:53:39.420Z,0.20
2022-09-07T00:56:08.392Z,0.13
2022-09-07T00:58:40.112Z,0.20
2022-09-07T01:01:09.737Z,0.20
2022-09-07T01:03:41.129Z,0.20
2022-09-07T01:06:16.793Z,0.20
2022-09-07T01:08:48.760Z,0.20
2022-09-07T01:11:18.496Z,0.13
2022-09-07T01:13:49.794Z,0.20
2022-09-07T01:16:32.868Z,0.10
2022-09-07T01:19:13.894Z,0.20
2022-09-07T01:21:59.566Z,0.20
2022-09-07T01:24:42.898Z,0.20
2022-09-07T01:27:51.476Z,0.20
2022-09-07T01:30:21.513Z,0.20
2022-09-07T01:33:07.288Z,0.20
2022-09-07T01:35:45.072Z,0.20
2022-09-07T01:38:23.272Z,0.20
2022-09-07T01:40:58.460Z,0.20
2022-09-07T01:43:38.460Z,0.20
2022-09-07T01:46:12.056Z,0.20
2022-09-07T01:48:45.441Z,0.10
2022-09-07T01:51:14.066Z,0.10
2022-09-07T01:53:50.658Z,0.10
2022-09-07T01:56:25.724Z,0.10
2022-09-07T01:58:58.494Z,0.20
2022-09-07T02:01:32.983Z,0.17
2022-09-07T02:04:06.146Z,0.10
2022-09-07T02:06:41.688Z,0.10
2022-09-07T02:09:18.415Z,0.10
2022-09-07T02:11:50.121Z,0.10
2022-09-07T02:14:24.040Z,0.20
2022-09-07T02:16:56.990Z,0.10
2022-09-07T02:19:29.528Z,0.20
2022-09-07T02:22:02.477Z,0.20
2022-09-07T02:24:35.312Z,0.20
2022-09-07T02:27:08.856Z,0.10
2022-09-07T02:29:38.502Z,0.20
2022-09-07T02:32:07.184Z,0.10
2022-09-07T02:34:35.184Z,0.10
2022-09-07T02:37:06.704Z,0.10
2022-09-07T02:39:35.032Z,0.10
2022-09-07T02:42:03.223Z,0.10
2022-09-07T02:44:34.676Z,0.10
2022-09-07T02:47:14.436Z,0.10
2022-09-07T02:50:09.789Z,0.10
2022-09-07T02:52:48.269Z,0.20
2022-09-07T02:55:27.066Z,0.20
2022-09-07T02:58:04.872Z,0.20
2022-09-07T03:00:36.974Z,0.20
2022-09-07T03:03:16.768Z,0.13
2022-09-07T03:05:50.732Z,0.20
2022-09-07T03:08:22.748Z,0.10
2022-09-07T03:10:51.680Z,0.20
2022-09-07T03:13:25.403Z,0.10
2022-09-07T03:15:56.144Z,0.13
2022-09-07T03:18:26.490Z,0.20
2022-09-07T03:20:54.912Z,0.10
2022-09-07T03:23:23.170Z,0.20
2022-09-07T03:25:51.355Z,0.10
2022-09-07T03:28:19.359Z,0.10
2022-09-07T03:30:48.435Z,0.20
2022-09-07T03:33:17.658Z,0.10
2022-09-07T03:35:57.449Z,0.10
2022-09-07T03:38:25.488Z,0.10
2022-09-07T03:40:59.119Z,0.20
2022-09-07T03:43:27.316Z,0.10
2022-09-07T03:45:58.527Z,0.10
2022-09-07T03:48:26.590Z,0.20
2022-09-07T03:51:00.277Z,0.20
2022-09-07T03:53:28.336Z,0.10
2022-09-07T03:56:00.934Z,0.20
2022-09-07T03:58:31.257Z,0.13
2022-09-07T04:01:00.346Z,0.10
2022-09-07T04:03:28.524Z,0.10
2022-09-07T04:05:57.339Z,0.10
2022-09-07T04:08:27.866Z,0.20
2022-09-07T04:10:57.339Z,0.10
2022-09-07T04:13:25.677Z,0.20
2022-09-07T04:15:54.051Z,0.10
2022-09-07T04:18:25.545Z,0.10
2022-09-07T04:20:53.581Z,0.20
2022-09-07T04:23:21.824Z,0.20
2022-09-07T04:25:52.129Z,0.20
2022-09-07T04:28:21.777Z,0.10
2022-09-07T04:30:49.902Z,0.20
2022-09-07T04:33:18.244Z,0.20
2022-09-07T04:35:46.222Z,0.20
2022-09-07T04:38:16.174Z,0.10
2022-09-07T04:40:44.097Z,0.20
2022-09-07T04:43:14.070Z,0.20
2022-09-07T04:45:42.030Z,0.10
2022-09-07T04:48:09.836Z,0.10
2022-09-07T04:50:37.765Z,0.13
2022-09-07T04:53:05.607Z,0.20
2022-09-07T04:55:33.448Z,0.13
2022-09-07T04:58:01.255Z,0.20
2022-09-07T05:00:30.696Z,0.13
2022-09-07T05:02:58.451Z,0.20
2022-09-07T05:05:26.450Z,0.10
2022-09-07T05:07:54.421Z,0.20
2022-09-07T05:10:22.179Z,0.13
2022-09-07T05:12:50.106Z,0.20
2022-09-07T05:15:18.034Z,0.17
2022-09-07T05:17:47.275Z,0.20
2022-09-07T05:20:19.620Z,0.10
2022-09-07T05:22:48.258Z,0.20
2022-09-07T05:25:16.267Z,0.20
2022-09-07T05:27:44.114Z,0.10
2022-09-07T05:33:04.027Z,0.13
2022-09-07T05:35:32.092Z,0.10
2022-09-07T05:37:59.959Z,0.13
2022-09-07T05:40:27.804Z,0.20
2022-09-07T05:42:55.686Z,0.20
2022-09-07T05:45:24.159Z,0.13
2022-09-07T05:47:51.979Z,0.10
2022-09-07T05:50:21.296Z,0.13
2022-09-07T05:52:49.346Z,0.20
2022-09-07T05:55:29.389Z,0.20
2022-09-07T05:57:58.515Z,0.20
2022-09-07T06:00:26.345Z,0.20
2022-09-07T06:02:54.371Z,0.20
2022-09-07T06:05:23.660Z,0.10
2022-09-07T06:07:51.597Z,0.20
2022-09-07T06:13:07.581Z,0.10
2022-09-07T06:15:35.483Z,0.17
2022-09-07T06:18:03.268Z,0.10
2022-09-07T06:20:32.513Z,0.13
2022-09-07T06:23:00.420Z,0.20
2022-09-07T06:25:28.294Z,0.10
2022-09-07T06:27:56.354Z,0.10
2022-09-07T06:30:25.332Z,0.10
2022-09-07T06:32:53.394Z,0.20
2022-09-07T06:35:21.248Z,0.10
2022-09-07T06:37:50.459Z,0.10
2022-09-07T06:40:18.459Z,0.10
2022-09-07T06:42:46.269Z,0.10
2022-09-07T06:45:14.121Z,0.20
2022-09-07T06:47:42.142Z,0.20
2022-09-07T06:50:12.385Z,0.10
2022-09-07T06:55:29.922Z,0.10
2022-09-07T06:57:57.858Z,0.10
2022-09-07T07:00:25.719Z,0.20
2022-09-07T07:02:53.854Z,0.10
2022-09-07T07:05:21.985Z,0.10
2022-09-07T07:07:49.928Z,0.10
2022-09-07T07:10:22.182Z,0.13
2022-09-07T07:12:57.389Z,0.20
2022-09-07T07:15:27.618Z,0.10
2022-09-07T07:18:09.274Z,0.10
2022-09-07T07:20:43.145Z,0.20
2022-09-07T07:23:12.223Z,0.10
2022-09-07T07:25:40.189Z,0.10
2022-09-07T07:30:58.285Z,0.10
2022-09-07T07:33:43.814Z,0.10
2022-09-07T07:36:13.069Z,0.10
2022-09-07T07:44:26.042Z,0.10
2022-09-07T07:46:55.553Z,0.10
2022-09-07T07:49:23.620Z,0.10
2022-09-07T07:54:39.367Z,0.10
2022-09-07T07:57:07.684Z,0.10
2022-09-07T07:59:37.501Z,0.10
2022-09-07T08:02:06.413Z,0.10
2022-09-07T08:04:35.136Z,0.10
2022-09-07T08:07:09.719Z,0.17
2022-09-07T08:09:38.246Z,0.20
2022-09-07T08:12:06.181Z,0.10
2022-09-07T08:14:36.517Z,0.10
2022-09-07T08:17:05.869Z,0.10
2022-09-07T08:19:33.845Z,0.10
2022-09-07T08:22:03.876Z,0.10
2022-09-07T08:24:32.925Z,0.10
2022-09-07T08:27:00.819Z,0.10
2022-09-07T08:29:33.461Z,0.10
2022-09-07T08:32:02.444Z,0.10
2022-09-07T08:34:31.749Z,0.10
2022-09-07T08:36:59.757Z,0.10
2022-09-07T08:39:27.676Z,0.20
2022-09-07T08:42:14.876Z,0.20
2022-09-07T08:44:48.857Z,0.20
2022-09-07T08:47:28.513Z,0.10
2022-09-07T08:50:05.320Z,0.13
2022-09-07T08:52:43.763Z,0.20
2022-09-07T08:55:17.508Z,0.10
2022-09-07T08:57:52.634Z,0.20
2022-09-07T09:00:22.594Z,0.10
2022-09-07T09:05:47.847Z,0.10
2022-09-07T09:08:29.819Z,0.10
2022-09-07T09:11:05.273Z,0.10
2022-09-07T09:13:45.343Z,0.10
2022-09-07T09:16:20.133Z,0.10
2022-09-07T09:19:03.226Z,0.10
2022-09-07T09:21:33.132Z,0.10
2022-09-07T09:24:12.128Z,0.10
2022-09-07T09:26:43.226Z,0.10
2022-09-07T09:29:15.392Z,0.10
2022-09-07T09:31:43.582Z,0.10
2022-09-07T09:34:14.254Z,0.13
2022-09-07T09:36:46.807Z,0.10
2022-09-07T09:39:35.352Z,0.10
2022-09-07T09:42:16.819Z,0.10
2022-09-07T09:44:45.718Z,0.10
2022-09-07T09:47:32.690Z,0.10
2022-09-07T09:50:03.319Z,0.10
2022-09-07T09:52:47.597Z,0.10
2022-09-07T09:55:35.818Z,0.20
2022-09-07T10:04:00.900Z,0.10
2022-09-07T10:06:35.853Z,0.10
2022-09-07T10:09:06.932Z,0.10
2022-09-07T10:14:33.483Z,0.10
2022-09-07T10:17:02.545Z,0.10
2022-09-07T10:19:36.096Z,0.10
2022-09-07T10:22:08.343Z,0.10
2022-09-07T10:24:41.469Z,0.10
2022-09-07T10:27:21.767Z,0.10
2022-09-07T10:29:49.728Z,0.10
2022-09-07T10:32:26.914Z,0.10
2022-09-07T10:35:09.159Z,0.10
2022-09-07T10:37:50.823Z,0.00
2022-09-07T10:40:29.575Z,0.00
2022-09-07T10:43:22.236Z,0.00
2022-09-07T10:46:10.577Z,0.07
2022-09-07T10:48:49.423Z,0.10
2022-09-07T10:51:19.163Z,0.00
2022-09-07T10:56:53.428Z,0.10
2022-09-07T11:02:31.264Z,0.10
2022-09-07T11:05:09.949Z,0.10
2022-09-07T11:07:55.440Z,0.10
2022-09-07T11:10:33.447Z,0.10
2022-09-07T11:13:06.824Z,0.10
2022-09-07T11:15:39.134Z,0.10
2022-09-07T11:18:13.108Z,0.10
2022-09-07T11:20:46.159Z,0.00
2022-09-07T11:23:20.199Z,0.10
2022-09-07T11:25:59.918Z,0.00
2022-09-07T11:28:35.270Z,0.07
2022-09-07T11:31:08.334Z,0.00
2022-09-07T11:34:23.820Z,0.00
2022-09-07T11:36:44.171Z,0.10
2022-09-07T11:39:19.885Z,0.00
2022-09-07T11:41:55.245Z,0.10
2022-09-07T11:44:30.661Z,0.00
2022-09-07T11:47:05.899Z,0.00
2022-09-07T11:49:33.777Z,0.10
2022-09-07T11:52:05.499Z,0.00
2022-09-07T11:54:45.867Z,0.00
2022-09-07T11:57:28.408Z,0.00
2022-09-07T12:00:05.763Z,0.00
2022-09-07T12:03:01.917Z,0.00
2022-09-07T12:05:51.111Z,0.00
2022-09-07T12:08:31.652Z,0.00
2022-09-07T12:11:11.756Z,0.00
2022-09-07T12:14:12.457Z,0.00
2022-09-07T12:17:02.633Z,0.07
2022-09-07T12:19:30.534Z,0.00
2022-09-07T12:21:59.756Z,0.10
2022-09-07T12:24:36.351Z,0.10
2022-09-07T12:27:05.349Z,0.10
2022-09-07T12:29:36.829Z,0.10
2022-09-07T12:32:53.145Z,0.03
2022-09-07T12:34:58.018Z,0.00
2022-09-07T12:37:40.838Z,0.00
2022-09-07T12:40:51.375Z,0.00
2022-09-07T12:43:53.851Z,0.00
2022-09-07T12:46:46.784Z,0.00
2022-09-07T12:49:39.506Z,0.00
2022-09-07T12:52:33.152Z,0.00
2022-09-07T12:55:27.811Z,0.00
2022-09-07T12:58:13.197Z,0.00
2022-09-07T13:00:54.696Z,0.00
2022-09-07T13:03:55.094Z,0.00
2022-09-07T13:09:35.688Z,0.00
2022-09-07T13:15:32.606Z,0.00
2022-09-07T13:18:00.757Z,0.00
2022-09-07T13:20:37.548Z,0.00
2022-09-07T13:23:21.260Z,0.00
2022-09-07T13:25:52.067Z,0.00
2022-09-07T13:28:31.965Z,0.00
2022-09-07T13:31:22.063Z,0.00
2022-09-07T13:33:54.722Z,0.00
2022-09-07T13:36:46.368Z,0.00
2022-09-07T13:39:18.676Z,0.00
2022-09-07T13:41:52.236Z,0.00
2022-09-07T13:44:26.240Z,0.00
2022-09-07T13:47:33.937Z,0.10
2022-09-07T13:50:18.299Z,0.10
2022-09-07T13:53:17.317Z,0.00
2022-09-07T13:55:54.060Z,0.00
2022-09-07T13:58:28.417Z,0.00
2022-09-07T14:01:00.052Z,0.05
2022-09-07T14:03:31.427Z,0.00
2022-09-07T14:06:16.729Z,0.00
2022-09-07T14:08:48.613Z,0.00
2022-09-07T14:11:20.678Z,0.00
2022-09-07T14:14:08.704Z,0.00
2022-09-07T14:16:39.210Z,0.00
2022-09-07T14:19:18.251Z,0.10
2022-09-07T14:21:56.010Z,0.00
2022-09-07T14:24:31.070Z,0.00
2022-09-07T14:27:01.287Z,0.00
2022-09-07T14:29:32.114Z,0.10
2022-09-07T14:32:01.931Z,0.00
2022-09-07T14:34:33.286Z,0.00
2022-09-07T14:37:06.378Z,0.10
2022-09-07T14:39:39.255Z,0.00
2022-09-07T14:42:12.256Z,0.00
2022-09-07T14:44:43.115Z,0.00
2022-09-07T14:47:25.974Z,0.00
2022-09-07T14:49:55.949Z,0.00
2022-09-07T14:52:36.721Z,0.00
2022-09-07T14:55:19.866Z,0.00
2022-09-07T14:57:50.231Z,0.00
2022-09-07T15:00:30.139Z,0.00
2022-09-07T15:02:58.238Z,0.00
2022-09-07T15:05:28.452Z,0.00
2022-09-07T15:08:00.138Z,0.00
2022-09-07T15:10:35.638Z,0.10
2022-09-07T15:13:07.246Z,0.10
2022-09-07T15:15:37.436Z,0.00
2022-09-07T15:18:09.225Z,0.10
2022-09-07T15:20:40.880Z,0.10
2022-09-07T15:23:12.309Z,0.00
2022-09-07T15:25:43.279Z,0.00
2022-09-07T15:34:09.813Z,0.00
2022-09-07T15:36:40.335Z,0.00
2022-09-07T15:39:17.114Z,0.00
2022-09-07T15:41:45.710Z,0.00
2022-09-07T15:44:15.914Z,0.00
2022-09-07T15:47:43.232Z,0.00
2022-09-07T15:56:40.058Z,0.00
2022-09-07T15:59:14.373Z,0.00
2022-09-07T16:01:59.430Z,0.00
2022-09-07T16:04:28.033Z,0.10
2022-09-07T16:06:55.912Z,0.10
2022-09-07T16:09:23.785Z,0.10
2022-09-07T16:11:52.090Z,0.10
2022-09-07T16:14:20.474Z,0.10
2022-09-07T16:19:41.061Z,0.10
2022-09-07T16:23:13.286Z,0.10
2022-09-07T16:24:59.997Z,0.10
2022-09-07T16:27:32.142Z,0.10
2022-09-07T16:30:00.783Z,0.10
2022-09-07T16:32:45.685Z,0.10
2022-09-07T16:35:13.758Z,0.07
2022-09-07T16:38:43.605Z,0.10
2022-09-07T16:40:29.328Z,0.10
2022-09-07T16:42:57.207Z,0.10
2022-09-07T16:48:14.307Z,0.10
2022-09-07T16:50:56.512Z,0.10
2022-09-07T16:53:29.114Z,0.10
2022-09-07T16:56:01.670Z,0.10
2022-09-07T16:58:38.299Z,0.20
2022-09-07T17:01:07.730Z,0.10
2022-09-07T17:03:37.403Z,0.10
2022-09-07T17:06:06.726Z,0.20
2022-09-07T17:08:35.390Z,0.10
2022-09-07T17:11:04.450Z,0.20
2022-09-07T17:13:33.084Z,0.20
2022-09-07T17:16:04.389Z,0.10
2022-09-07T17:21:21.994Z,0.20
2022-09-07T17:23:55.367Z,0.10
2022-09-07T17:26:27.420Z,0.13
2022-09-07T17:29:00.273Z,0.10
2022-09-07T17:34:19.491Z,0.10
2022-09-07T17:36:49.097Z,0.17
2022-09-07T17:39:19.690Z,0.17
2022-09-07T17:41:48.674Z,0.20
2022-09-07T17:44:17.458Z,0.10
2022-09-07T17:46:45.455Z,0.20
2022-09-07T17:49:16.246Z,0.20
2022-09-07T17:51:46.108Z,0.20
2022-09-07T17:54:17.627Z,0.10
2022-09-07T17:56:46.091Z,0.20
2022-09-07T18:02:08.240Z,0.20
2022-09-07T18:04:52.944Z,0.20
2022-09-07T18:07:21.946Z,0.13
2022-09-07T18:09:51.220Z,0.20
2022-09-07T18:12:19.129Z,0.13
2022-09-07T18:14:46.950Z,0.20
2022-09-07T18:17:16.013Z,0.20
2022-09-07T18:19:43.953Z,0.20
2022-09-07T18:22:11.989Z,0.10
2022-09-07T18:24:40.947Z,0.20
2022-09-07T18:27:10.376Z,0.20
2022-09-07T18:29:40.478Z,0.20
2022-09-07T18:32:09.856Z,0.20
2022-09-07T18:34:40.756Z,0.20
2022-09-07T18:37:12.192Z,0.20
2022-09-07T18:39:40.918Z,0.20
2022-09-07T18:42:11.009Z,0.20
2022-09-07T18:47:29.391Z,0.20
2022-09-07T18:49:58.654Z,0.20
2022-09-07T18:55:16.174Z,0.13
2022-09-07T18:57:45.538Z,0.20
2022-09-07T19:00:14.518Z,0.20
2022-09-07T19:02:44.903Z,0.20
2022-09-07T19:08:03.431Z,0.20
2022-09-07T19:10:33.968Z,0.10
2022-09-07T19:13:03.538Z,0.20
2022-09-07T19:15:37.146Z,0.10
2022-09-07T19:18:06.958Z,0.20
2022-09-07T19:20:42.454Z,0.20
2022-09-07T19:23:10.321Z,0.20
2022-09-07T19:25:42.307Z,0.20
2022-09-07T19:28:11.604Z,0.20
2022-09-07T19:30:39.528Z,0.20
2022-09-07T19:33:10.004Z,0.20
2022-09-07T19:35:37.915Z,0.17
2022-09-07T19:38:06.024Z,0.20
2022-09-07T19:40:34.059Z,0.20
2022-09-07T19:43:01.913Z,0.10
2022-09-07T19:45:31.569Z,0.20
2022-09-07T19:47:59.527Z,0.20
2022-09-07T19:50:27.301Z,0.20
2022-09-07T19:52:55.286Z,0.20
2022-09-07T19:55:25.600Z,0.20
2022-09-07T19:57:53.409Z,0.20
2022-09-07T20:00:22.647Z,0.20
2022-09-07T20:02:55.180Z,0.20
2022-09-07T20:05:23.853Z,0.20
2022-09-07T20:07:51.882Z,0.20
2022-09-07T20:10:19.723Z,0.20
2022-09-07T20:12:48.564Z,0.20
2022-09-07T20:15:16.454Z,0.20
2022-09-07T20:17:44.392Z,0.20
2022-09-07T20:20:13.585Z,0.10
2022-09-07T20:22:41.515Z,0.10
2022-09-07T20:25:13.144Z,0.10
2022-09-07T20:27:41.676Z,0.13
2022-09-07T20:30:10.408Z,0.10
2022-09-07T20:32:38.204Z,0.10
2022-09-07T20:35:06.793Z,0.20
2022-09-07T20:37:36.064Z,0.20
2022-09-07T20:40:06.335Z,0.20
2022-09-07T20:42:34.358Z,0.10
2022-09-07T20:45:02.869Z,0.20
2022-09-07T20:47:30.899Z,0.20
2022-09-07T20:49:58.844Z,0.20
2022-09-07T20:52:27.296Z,0.20
2022-09-07T20:54:57.138Z,0.10
2022-09-07T20:57:25.038Z,0.20
2022-09-07T20:59:53.041Z,0.17
2022-09-07T21:02:20.944Z,0.20
2022-09-07T21:04:48.918Z,0.20
2022-09-07T21:07:16.770Z,0.10
2022-09-07T21:09:44.559Z,0.20
2022-09-07T21:12:14.176Z,0.17
2022-09-07T21:14:42.045Z,0.20
2022-09-07T21:17:09.842Z,0.10
2022-09-07T21:19:37.727Z,0.20
2022-09-07T21:22:05.717Z,0.20
2022-09-07T21:24:33.491Z,0.20
2022-09-07T21:27:01.299Z,0.10
2022-09-07T21:29:30.670Z,0.20
2022-09-07T21:31:58.514Z,0.20
2022-09-07T21:34:26.356Z,0.20
2022-09-07T21:36:54.199Z,0.20
2022-09-07T21:39:22.107Z,0.10
2022-09-07T21:41:50.256Z,0.20
2022-09-07T21:44:18.393Z,0.20
2022-09-07T21:46:47.721Z,0.10
2022-09-07T21:49:15.593Z,0.17
2022-09-07T21:51:43.607Z,0.20
2022-09-07T21:54:11.840Z,0.20
2022-09-07T21:56:44.382Z,0.20
2022-09-07T21:59:13.896Z,0.13
2022-09-07T22:01:41.992Z,0.20
2022-09-07T22:04:13.567Z,0.20
2022-09-07T22:06:43.897Z,0.20
2022-09-07T22:09:11.610Z,0.20
2022-09-07T22:11:42.020Z,0.20
2022-09-07T22:14:15.741Z,0.20
2022-09-07T22:16:43.683Z,0.13
2022-09-07T22:19:12.913Z,0.20
2022-09-07T22:21:41.109Z,0.20
2022-09-07T22:24:08.861Z,0.20
2022-09-07T22:26:38.388Z,0.20
2022-09-07T22:29:07.635Z,0.20
2022-09-07T22:31:37.416Z,0.20
2022-09-07T22:34:08.892Z,0.10
2022-09-07T22:36:39.927Z,0.10
2022-09-07T22:39:09.941Z,0.10
2022-09-07T22:41:40.028Z,0.20
2022-09-07T22:44:10.587Z,0.10
2022-09-07T22:46:40.663Z,0.10
2022-09-07T22:49:09.990Z,0.20
2022-09-07T22:51:39.562Z,0.20
2022-09-07T22:54:07.940Z,0.20
2022-09-07T22:56:35.819Z,0.20
2022-09-07T22:59:07.502Z,0.20
2022-09-07T23:01:36.662Z,0.20
2022-09-07T23:04:05.695Z,0.20
2022-09-07T23:06:35.594Z,0.17
2022-09-07T23:09:07.779Z,0.20
2022-09-07T23:11:36.492Z,0.20
2022-09-07T23:14:06.499Z,0.20
2022-09-07T23:16:35.137Z,0.20
2022-09-07T23:19:02.957Z,0.20
2022-09-07T23:21:30.835Z,0.10
2022-09-07T23:24:00.789Z,0.20
2022-09-07T23:26:32.075Z,0.20
2022-09-07T23:29:01.783Z,0.10
2022-09-07T23:31:31.674Z,0.20
2022-09-07T23:33:59.819Z,0.10
2022-09-07T23:36:29.579Z,0.20
2022-09-07T23:38:59.590Z,0.20
2022-09-07T23:41:29.585Z,0.20
2022-09-07T23:43:57.688Z,0.20
2022-09-07T23:46:26.067Z,0.20
2022-09-07T23:48:54.301Z,0.20
2022-09-07T23:51:24.520Z,0.20
2022-09-07T23:53:53.513Z,0.20
2022-09-07T23:56:21.574Z,0.20
2022-09-07T23:58:50.827Z,0.20
